KSUU/SUU METAR and TAF weather

Enter ICAO airport designator
Station Type Date Time Source
KSUU METAR 2019/10/15 02:58 UTC NOAA

KSUU 150258Z AUTO 23011KT 10SM CLR 15/08 A2994 RMK AO2 SLP146 T01470080 53007 $


Station Type Date Time Source
KSUU Decoded METAR 2019/10/15 02:58 UTC NOAA

Fairfield / Travis Air Force Base, CA, United States (KSUU) 38-16N 121-57W 22M
Oct 14, 2019 - 10:58 PM EDT / 2019.10.15 0258 UTC
Wind: from the SW (230 degrees) at 13 MPH (11 KT):0
Visibility: 10 mile(s):0
Sky conditions: clear
Temperature: 58.5 F (14.7 C)
Dew Point: 46.4 F (8.0 C)
Relative Humidity: 64%
Pressure (altimeter): 29.94 in. Hg (1013 hPa)
Pressure tendency: 0.02 inches (0.7 hPa) higher than three hours ago
ob: KSUU 150258Z AUTO 23011KT 10SM CLR 15/08 A2994 RMK AO2 SLP146 T01470080 53007
cycle: 3

Station Type Date Time Source
KSUU TAF 2019/10/15 03:07 UTC NOAA

TAF KSUU 150300Z 1503/1609 23010G15KT 9999 SKC QNH2995INS
BECMG 1515/1516 23009KT 9999 SKC QNH2999INS
BECMG 1602/1603 23012G18KT 9999 SKC QNH2998INS TX29/1523Z TN05/1514Z

Example: see airport list